sensor_id;sensor_type;location;lat;lon;timestamp;P1;durP1;ratioP1;P2;durP2;ratioP2
41865;SDS011;27539;43.222;27.558;2022-10-12T00:01:11;3.17;;;2.95;;
41865;SDS011;27539;43.222;27.558;2022-10-12T00:03:37;11.05;;;3.03;;
41865;SDS011;27539;43.222;27.558;2022-10-12T00:06:10;20.42;;;5.43;;
41865;SDS011;27539;43.222;27.558;2022-10-12T00:08:41;10.70;;;4.55;;
41865;SDS011;27539;43.222;27.558;2022-10-12T00:11:13;5.78;;;4.07;;
41865;SDS011;27539;43.222;27.558;2022-10-12T00:13:40;5.63;;;3.25;;
41865;SDS011;27539;43.222;27.558;2022-10-12T00:16:06;8.32;;;4.60;;
41865;SDS011;27539;43.222;27.558;2022-10-12T00:18:34;3.45;;;2.75;;
41865;SDS011;27539;43.222;27.558;2022-10-12T00:21:04;9.23;;;3.05;;
41865;SDS011;27539;43.222;27.558;2022-10-12T00:23:35;7.35;;;3.95;;
41865;SDS011;27539;43.222;27.558;2022-10-12T00:26:02;3.75;;;3.45;;
41865;SDS011;27539;43.222;27.558;2022-10-12T00:28:29;9.02;;;3.75;;
41865;SDS011;27539;43.222;27.558;2022-10-12T00:30:55;13.15;;;3.75;;
41865;SDS011;27539;43.222;27.558;2022-10-12T00:33:21;5.85;;;3.17;;
41865;SDS011;27539;43.222;27.558;2022-10-12T00:35:46;10.52;;;5.40;;
41865;SDS011;27539;43.222;27.558;2022-10-12T00:38:12;10.00;;;5.20;;
41865;SDS011;27539;43.222;27.558;2022-10-12T00:40:37;7.28;;;4.60;;
41865;SDS011;27539;43.222;27.558;2022-10-12T00:43:03;6.25;;;3.03;;
41865;SDS011;27539;43.222;27.558;2022-10-12T00:45:28;4.13;;;3.58;;
41865;SDS011;27539;43.222;27.558;2022-10-12T00:47:57;4.80;;;3.92;;
41865;SDS011;27539;43.222;27.558;2022-10-12T00:50:31;2.30;;;2.08;;
41865;SDS011;27539;43.222;27.558;2022-10-12T00:53:03;2.58;;;2.38;;
41865;SDS011;27539;43.222;27.558;2022-10-12T00:55:34;1.88;;;1.48;;
41865;SDS011;27539;43.222;27.558;2022-10-12T00:58:03;9.35;;;2.80;;
41865;SDS011;27539;43.222;27.558;2022-10-12T01:00:32;17.45;;;4.15;;
41865;SDS011;27539;43.222;27.558;2022-10-12T01:02:58;1.98;;;1.88;;
41865;SDS011;27539;43.222;27.558;2022-10-12T01:05:24;5.93;;;2.35;;
41865;SDS011;27539;43.222;27.558;2022-10-12T01:07:50;7.30;;;4.40;;
41865;SDS011;27539;43.222;27.558;2022-10-12T01:10:16;2.45;;;2.20;;
41865;SDS011;27539;43.222;27.558;2022-10-12T01:12:42;4.28;;;2.53;;
41865;SDS011;27539;43.222;27.558;2022-10-12T01:15:11;1.60;;;1.48;;
41865;SDS011;27539;43.222;27.558;2022-10-12T01:26:15;4.30;;;2.38;;
41865;SDS011;27539;43.222;27.558;2022-10-12T01:32:28;1.10;;;1.10;;
41865;SDS011;27539;43.222;27.558;2022-10-12T01:37:14;3.63;;;2.67;;
41865;SDS011;27539;43.222;27.558;2022-10-12T01:42:25;4.53;;;2.60;;
41865;SDS011;27539;43.222;27.558;2022-10-12T01:45:06;8.07;;;2.40;;
41865;SDS011;27539;43.222;27.558;2022-10-12T01:47:40;14.40;;;3.80;;
41865;SDS011;27539;43.222;27.558;2022-10-12T01:50:10;3.20;;;1.88;;
41865;SDS011;27539;43.222;27.558;2022-10-12T01:58:25;4.22;;;2.65;;
41865;SDS011;27539;43.222;27.558;2022-10-12T02:04:01;5.15;;;1.77;;
41865;SDS011;27539;43.222;27.558;2022-10-12T02:06:47;2.75;;;1.50;;
41865;SDS011;27539;43.222;27.558;2022-10-12T02:11:43;5.40;;;2.55;;
41865;SDS011;27539;43.222;27.558;2022-10-12T02:14:12;1.92;;;1.63;;
41865;SDS011;27539;43.222;27.558;2022-10-12T02:16:49;1.50;;;1.17;;
41865;SDS011;27539;43.222;27.558;2022-10-12T02:19:25;1.85;;;1.10;;
41865;SDS011;27539;43.222;27.558;2022-10-12T02:21:54;3.13;;;2.42;;
41865;SDS011;27539;43.222;27.558;2022-10-12T02:24:25;1.02;;;0.75;;
41865;SDS011;27539;43.222;27.558;2022-10-12T02:26:52;1.00;;;0.93;;
41865;SDS011;27539;43.222;27.558;2022-10-12T02:29:21;1.45;;;1.35;;
41865;SDS011;27539;43.222;27.558;2022-10-12T02:34:56;0.95;;;0.88;;
41865;SDS011;27539;43.222;27.558;2022-10-12T02:40:25;2.25;;;1.52;;
41865;SDS011;27539;43.222;27.558;2022-10-12T02:43:05;1.40;;;1.30;;
41865;SDS011;27539;43.222;27.558;2022-10-12T02:45:35;5.88;;;1.67;;
41865;SDS011;27539;43.222;27.558;2022-10-12T02:48:02;2.42;;;1.38;;
41865;SDS011;27539;43.222;27.558;2022-10-12T02:50:31;3.22;;;1.30;;
41865;SDS011;27539;43.222;27.558;2022-10-12T02:52:57;1.25;;;1.17;;
41865;SDS011;27539;43.222;27.558;2022-10-12T02:55:23;1.33;;;1.23;;
41865;SDS011;27539;43.222;27.558;2022-10-12T02:57:49;0.70;;;0.70;;
41865;SDS011;27539;43.222;27.558;2022-10-12T03:00:14;1.50;;;1.27;;
41865;SDS011;27539;43.222;27.558;2022-10-12T03:02:40;0.68;;;0.60;;
41865;SDS011;27539;43.222;27.558;2022-10-12T03:05:06;1.35;;;1.25;;
41865;SDS011;27539;43.222;27.558;2022-10-12T03:07:31;0.57;;;0.57;;
41865;SDS011;27539;43.222;27.558;2022-10-12T03:09:57;3.15;;;0.68;;
41865;SDS011;27539;43.222;27.558;2022-10-12T03:12:22;0.40;;;0.40;;
41865;SDS011;27539;43.222;27.558;2022-10-12T03:14:48;1.35;;;0.95;;
41865;SDS011;27539;43.222;27.558;2022-10-12T03:17:13;0.75;;;0.75;;
41865;SDS011;27539;43.222;27.558;2022-10-12T03:19:39;0.75;;;0.50;;
41865;SDS011;27539;43.222;27.558;2022-10-12T03:22:04;0.80;;;0.80;;
41865;SDS011;27539;43.222;27.558;2022-10-12T03:24:30;0.95;;;0.60;;
41865;SDS011;27539;43.222;27.558;2022-10-12T03:26:55;2.42;;;0.68;;
41865;SDS011;27539;43.222;27.558;2022-10-12T03:29:21;0.28;;;0.28;;
41865;SDS011;27539;43.222;27.558;2022-10-12T03:31:46;0.75;;;0.75;;
41865;SDS011;27539;43.222;27.558;2022-10-12T03:34:12;0.40;;;0.40;;
41865;SDS011;27539;43.222;27.558;2022-10-12T03:36:37;0.70;;;0.70;;
41865;SDS011;27539;43.222;27.558;2022-10-12T03:39:02;7.78;;;1.33;;
41865;SDS011;27539;43.222;27.558;2022-10-12T03:41:28;0.52;;;0.40;;
41865;SDS011;27539;43.222;27.558;2022-10-12T03:43:53;1.17;;;1.15;;
41865;SDS011;27539;43.222;27.558;2022-10-12T03:46:19;2.60;;;1.25;;
41865;SDS011;27539;43.222;27.558;2022-10-12T03:48:44;4.28;;;1.73;;
41865;SDS011;27539;43.222;27.558;2022-10-12T03:51:10;1.08;;;0.98;;
41865;SDS011;27539;43.222;27.558;2022-10-12T03:53:35;0.50;;;0.50;;
41865;SDS011;27539;43.222;27.558;2022-10-12T03:56:00;0.73;;;0.73;;
41865;SDS011;27539;43.222;27.558;2022-10-12T03:58:26;0.65;;;0.65;;
41865;SDS011;27539;43.222;27.558;2022-10-12T04:00:52;2.30;;;1.35;;
41865;SDS011;27539;43.222;27.558;2022-10-12T04:03:18;0.57;;;0.45;;
41865;SDS011;27539;43.222;27.558;2022-10-12T04:05:43;7.70;;;1.77;;
41865;SDS011;27539;43.222;27.558;2022-10-12T04:08:09;0.60;;;0.60;;
41865;SDS011;27539;43.222;27.558;2022-10-12T04:10:34;0.45;;;0.45;;
41865;SDS011;27539;43.222;27.558;2022-10-12T04:12:59;1.83;;;1.35;;
41865;SDS011;27539;43.222;27.558;2022-10-12T04:15:25;0.70;;;0.68;;
41865;SDS011;27539;43.222;27.558;2022-10-12T04:17:50;0.63;;;0.32;;
41865;SDS011;27539;43.222;27.558;2022-10-12T04:20:16;0.50;;;0.50;;
41865;SDS011;27539;43.222;27.558;2022-10-12T04:22:42;1.65;;;0.77;;
41865;SDS011;27539;43.222;27.558;2022-10-12T04:25:08;1.00;;;0.82;;
41865;SDS011;27539;43.222;27.558;2022-10-12T04:27:35;0.43;;;0.43;;
41865;SDS011;27539;43.222;27.558;2022-10-12T04:30:00;1.15;;;0.50;;
41865;SDS011;27539;43.222;27.558;2022-10-12T04:32:26;0.60;;;0.40;;
41865;SDS011;27539;43.222;27.558;2022-10-12T04:34:51;1.55;;;0.55;;
41865;SDS011;27539;43.222;27.558;2022-10-12T04:37:17;1.30;;;0.77;;
41865;SDS011;27539;43.222;27.558;2022-10-12T04:39:42;1.08;;;0.80;;
41865;SDS011;27539;43.222;27.558;2022-10-12T04:42:07;0.38;;;0.38;;
41865;SDS011;27539;43.222;27.558;2022-10-12T04:44:33;0.45;;;0.45;;
41865;SDS011;27539;43.222;27.558;2022-10-12T04:46:59;1.25;;;0.32;;
41865;SDS011;27539;43.222;27.558;2022-10-12T04:49:25;0.20;;;0.20;;
41865;SDS011;27539;43.222;27.558;2022-10-12T04:51:51;0.40;;;0.40;;
41865;SDS011;27539;43.222;27.558;2022-10-12T04:54:16;0.30;;;0.30;;
41865;SDS011;27539;43.222;27.558;2022-10-12T04:56:42;0.45;;;0.30;;
41865;SDS011;27539;43.222;27.558;2022-10-12T04:59:07;0.10;;;0.10;;
41865;SDS011;27539;43.222;27.558;2022-10-12T05:01:32;0.40;;;0.40;;
41865;SDS011;27539;43.222;27.558;2022-10-12T05:03:58;0.77;;;0.77;;
41865;SDS011;27539;43.222;27.558;2022-10-12T05:06:24;0.20;;;0.20;;
41865;SDS011;27539;43.222;27.558;2022-10-12T05:08:50;0.22;;;0.22;;
41865;SDS011;27539;43.222;27.558;2022-10-12T05:11:15;0.22;;;0.22;;
41865;SDS011;27539;43.222;27.558;2022-10-12T05:13:41;0.50;;;0.50;;
41865;SDS011;27539;43.222;27.558;2022-10-12T05:16:06;0.45;;;0.45;;
41865;SDS011;27539;43.222;27.558;2022-10-12T05:18:31;4.47;;;0.20;;
41865;SDS011;27539;43.222;27.558;2022-10-12T05:20:57;0.20;;;0.20;;
41865;SDS011;27539;43.222;27.558;2022-10-12T05:23:22;0.20;;;0.20;;
41865;SDS011;27539;43.222;27.558;2022-10-12T05:25:48;0.90;;;0.90;;
41865;SDS011;27539;43.222;27.558;2022-10-12T05:28:13;0.10;;;0.10;;
41865;SDS011;27539;43.222;27.558;2022-10-12T05:30:39;0.10;;;0.10;;
41865;SDS011;27539;43.222;27.558;2022-10-12T05:33:04;0.15;;;0.15;;
41865;SDS011;27539;43.222;27.558;2022-10-12T05:35:29;0.32;;;0.32;;
41865;SDS011;27539;43.222;27.558;2022-10-12T05:37:55;0.30;;;0.30;;
41865;SDS011;27539;43.222;27.558;2022-10-12T05:40:20;0.35;;;0.35;;
41865;SDS011;27539;43.222;27.558;2022-10-12T05:42:46;0.57;;;0.30;;
41865;SDS011;27539;43.222;27.558;2022-10-12T05:45:11;0.25;;;0.25;;
41865;SDS011;27539;43.222;27.558;2022-10-12T05:47:38;0.43;;;0.20;;
41865;SDS011;27539;43.222;27.558;2022-10-12T05:50:04;2.65;;;0.40;;
41865;SDS011;27539;43.222;27.558;2022-10-12T05:52:30;0.50;;;0.25;;
41865;SDS011;27539;43.222;27.558;2022-10-12T05:54:55;0.30;;;0.30;;
41865;SDS011;27539;43.222;27.558;2022-10-12T05:57:21;0.10;;;0.10;;
41865;SDS011;27539;43.222;27.558;2022-10-12T05:59:46;0.22;;;0.22;;
41865;SDS011;27539;43.222;27.558;2022-10-12T06:02:12;0.10;;;0.10;;
41865;SDS011;27539;43.222;27.558;2022-10-12T06:04:39;7.28;;;1.13;;
41865;SDS011;27539;43.222;27.558;2022-10-12T06:07:04;0.75;;;0.75;;
41865;SDS011;27539;43.222;27.558;2022-10-12T06:09:30;0.20;;;0.20;;
41865;SDS011;27539;43.222;27.558;2022-10-12T06:11:55;0.28;;;0.28;;
41865;SDS011;27539;43.222;27.558;2022-10-12T06:14:21;0.73;;;0.73;;
41865;SDS011;27539;43.222;27.558;2022-10-12T06:16:46;0.10;;;0.10;;
41865;SDS011;27539;43.222;27.558;2022-10-12T06:19:12;0.22;;;0.22;;
41865;SDS011;27539;43.222;27.558;2022-10-12T06:21:37;0.20;;;0.15;;
41865;SDS011;27539;43.222;27.558;2022-10-12T06:24:03;0.93;;;0.63;;
41865;SDS011;27539;43.222;27.558;2022-10-12T06:26:29;0.20;;;0.20;;
41865;SDS011;27539;43.222;27.558;2022-10-12T06:28:54;0.10;;;0.10;;
41865;SDS011;27539;43.222;27.558;2022-10-12T06:31:20;0.15;;;0.10;;
41865;SDS011;27539;43.222;27.558;2022-10-12T06:33:45;0.38;;;0.32;;
41865;SDS011;27539;43.222;27.558;2022-10-12T06:36:11;0.85;;;0.38;;
41865;SDS011;27539;43.222;27.558;2022-10-12T06:38:36;0.20;;;0.20;;
41865;SDS011;27539;43.222;27.558;2022-10-12T06:41:02;0.75;;;0.55;;
41865;SDS011;27539;43.222;27.558;2022-10-12T06:43:27;0.13;;;0.13;;
41865;SDS011;27539;43.222;27.558;2022-10-12T06:45:53;0.10;;;0.10;;
41865;SDS011;27539;43.222;27.558;2022-10-12T06:48:23;0.20;;;0.20;;
41865;SDS011;27539;43.222;27.558;2022-10-12T06:50:49;0.20;;;0.20;;
41865;SDS011;27539;43.222;27.558;2022-10-12T06:53:14;0.10;;;0.10;;
41865;SDS011;27539;43.222;27.558;2022-10-12T06:55:40;0.30;;;0.30;;
41865;SDS011;27539;43.222;27.558;2022-10-12T06:58:05;0.00;;;0.00;;
41865;SDS011;27539;43.222;27.558;2022-10-12T07:00:31;0.25;;;0.25;;
41865;SDS011;27539;43.222;27.558;2022-10-12T07:02:56;0.40;;;0.40;;
41865;SDS011;27539;43.222;27.558;2022-10-12T07:05:22;0.28;;;0.28;;
41865;SDS011;27539;43.222;27.558;2022-10-12T07:07:48;0.20;;;0.20;;
41865;SDS011;27539;43.222;27.558;2022-10-12T07:10:13;0.35;;;0.35;;
41865;SDS011;27539;43.222;27.558;2022-10-12T07:12:39;0.13;;;0.13;;
41865;SDS011;27539;43.222;27.558;2022-10-12T07:15:04;0.20;;;0.20;;
41865;SDS011;27539;43.222;27.558;2022-10-12T07:17:30;1.90;;;0.65;;
41865;SDS011;27539;43.222;27.558;2022-10-12T07:19:56;0.03;;;0.03;;
41865;SDS011;27539;43.222;27.558;2022-10-12T07:22:21;0.35;;;0.35;;
41865;SDS011;27539;43.222;27.558;2022-10-12T07:24:47;0.38;;;0.20;;
41865;SDS011;27539;43.222;27.558;2022-10-12T07:27:12;0.68;;;0.68;;
41865;SDS011;27539;43.222;27.558;2022-10-12T07:29:38;0.08;;;0.08;;
41865;SDS011;27539;43.222;27.558;2022-10-12T07:32:04;0.50;;;0.40;;
41865;SDS011;27539;43.222;27.558;2022-10-12T07:34:30;0.80;;;0.57;;
41865;SDS011;27539;43.222;27.558;2022-10-12T07:36:56;0.20;;;0.20;;
41865;SDS011;27539;43.222;27.558;2022-10-12T07:39:22;0.60;;;0.03;;
41865;SDS011;27539;43.222;27.558;2022-10-12T07:41:48;0.10;;;0.10;;
41865;SDS011;27539;43.222;27.558;2022-10-12T07:44:15;1.67;;;0.28;;
41865;SDS011;27539;43.222;27.558;2022-10-12T07:46:40;1.25;;;0.77;;
41865;SDS011;27539;43.222;27.558;2022-10-12T07:49:06;0.20;;;0.20;;
41865;SDS011;27539;43.222;27.558;2022-10-12T07:51:32;0.20;;;0.20;;
41865;SDS011;27539;43.222;27.558;2022-10-12T07:53:58;4.00;;;1.35;;
41865;SDS011;27539;43.222;27.558;2022-10-12T07:56:24;0.35;;;0.35;;
41865;SDS011;27539;43.222;27.558;2022-10-12T07:58:53;0.53;;;0.53;;
41865;SDS011;27539;43.222;27.558;2022-10-12T08:01:21;0.45;;;0.40;;
41865;SDS011;27539;43.222;27.558;2022-10-12T08:03:49;0.55;;;0.55;;
41865;SDS011;27539;43.222;27.558;2022-10-12T08:06:16;0.15;;;0.10;;
41865;SDS011;27539;43.222;27.558;2022-10-12T08:08:46;3.65;;;0.35;;
41865;SDS011;27539;43.222;27.558;2022-10-12T08:11:12;0.10;;;0.10;;
41865;SDS011;27539;43.222;27.558;2022-10-12T08:13:38;0.43;;;0.20;;
41865;SDS011;27539;43.222;27.558;2022-10-12T08:16:04;0.35;;;0.35;;
41865;SDS011;27539;43.222;27.558;2022-10-12T08:18:32;0.90;;;0.60;;
41865;SDS011;27539;43.222;27.558;2022-10-12T08:20:57;0.20;;;0.20;;
41865;SDS011;27539;43.222;27.558;2022-10-12T08:23:23;0.10;;;0.10;;
41865;SDS011;27539;43.222;27.558;2022-10-12T08:25:52;0.17;;;0.17;;
41865;SDS011;27539;43.222;27.558;2022-10-12T08:28:18;0.60;;;0.60;;
41865;SDS011;27539;43.222;27.558;2022-10-12T08:30:44;2.35;;;0.80;;
41865;SDS011;27539;43.222;27.558;2022-10-12T08:33:09;0.30;;;0.30;;
41865;SDS011;27539;43.222;27.558;2022-10-12T08:35:39;0.68;;;0.38;;
41865;SDS011;27539;43.222;27.558;2022-10-12T08:38:06;1.75;;;1.45;;
41865;SDS011;27539;43.222;27.558;2022-10-12T08:40:33;0.30;;;0.30;;
41865;SDS011;27539;43.222;27.558;2022-10-12T08:43:04;1.70;;;0.80;;
41865;SDS011;27539;43.222;27.558;2022-10-12T08:45:52;0.35;;;0.32;;
41865;SDS011;27539;43.222;27.558;2022-10-12T08:48:25;1.45;;;0.50;;
41865;SDS011;27539;43.222;27.558;2022-10-12T08:50:53;0.85;;;0.55;;
41865;SDS011;27539;43.222;27.558;2022-10-12T08:56:04;0.38;;;0.38;;
41865;SDS011;27539;43.222;27.558;2022-10-12T08:58:31;0.47;;;0.47;;
41865;SDS011;27539;43.222;27.558;2022-10-12T09:01:03;0.25;;;0.25;;
41865;SDS011;27539;43.222;27.558;2022-10-12T09:04:07;0.57;;;0.57;;
41865;SDS011;27539;43.222;27.558;2022-10-12T09:07:00;0.45;;;0.45;;
41865;SDS011;27539;43.222;27.558;2022-10-12T09:15:08;2.28;;;1.58;;
41865;SDS011;27539;43.222;27.558;2022-10-12T09:17:39;1.40;;;0.65;;
41865;SDS011;27539;43.222;27.558;2022-10-12T09:23:16;0.90;;;0.85;;
41865;SDS011;27539;43.222;27.558;2022-10-12T09:25:56;0.30;;;0.30;;
41865;SDS011;27539;43.222;27.558;2022-10-12T09:33:58;1.75;;;0.98;;
41865;SDS011;27539;43.222;27.558;2022-10-12T09:36:27;0.55;;;0.32;;
41865;SDS011;27539;43.222;27.558;2022-10-12T09:38:55;3.50;;;0.60;;
41865;SDS011;27539;43.222;27.558;2022-10-12T09:41:28;0.32;;;0.32;;
41865;SDS011;27539;43.222;27.558;2022-10-12T09:43:59;0.40;;;0.40;;
41865;SDS011;27539;43.222;27.558;2022-10-12T09:46:40;0.47;;;0.40;;
41865;SDS011;27539;43.222;27.558;2022-10-12T09:49:10;0.82;;;0.50;;
41865;SDS011;27539;43.222;27.558;2022-10-12T09:51:35;0.20;;;0.20;;
41865;SDS011;27539;43.222;27.558;2022-10-12T09:54:01;0.10;;;0.10;;
41865;SDS011;27539;43.222;27.558;2022-10-12T09:58:59;0.77;;;0.40;;
41865;SDS011;27539;43.222;27.558;2022-10-12T10:01:28;0.50;;;0.50;;
41865;SDS011;27539;43.222;27.558;2022-10-12T10:04:07;0.20;;;0.20;;
41865;SDS011;27539;43.222;27.558;2022-10-12T10:06:47;2.45;;;0.55;;
41865;SDS011;27539;43.222;27.558;2022-10-12T10:09:26;0.52;;;0.52;;
41865;SDS011;27539;43.222;27.558;2022-10-12T10:11:54;1.25;;;0.40;;
41865;SDS011;27539;43.222;27.558;2022-10-12T10:14:20;0.20;;;0.20;;
41865;SDS011;27539;43.222;27.558;2022-10-12T10:16:47;2.05;;;0.77;;
41865;SDS011;27539;43.222;27.558;2022-10-12T10:19:18;0.20;;;0.20;;
41865;SDS011;27539;43.222;27.558;2022-10-12T10:21:49;0.75;;;0.50;;
41865;SDS011;27539;43.222;27.558;2022-10-12T10:24:25;0.30;;;0.30;;
41865;SDS011;27539;43.222;27.558;2022-10-12T10:26:54;0.20;;;0.20;;
41865;SDS011;27539;43.222;27.558;2022-10-12T10:29:33;3.72;;;0.40;;
41865;SDS011;27539;43.222;27.558;2022-10-12T10:34:40;0.65;;;0.52;;
41865;SDS011;27539;43.222;27.558;2022-10-12T10:37:06;0.30;;;0.30;;
41865;SDS011;27539;43.222;27.558;2022-10-12T10:39:48;0.65;;;0.63;;
41865;SDS011;27539;43.222;27.558;2022-10-12T10:42:21;0.10;;;0.10;;
41865;SDS011;27539;43.222;27.558;2022-10-12T10:44:55;0.45;;;0.38;;
41865;SDS011;27539;43.222;27.558;2022-10-12T10:47:32;0.52;;;0.30;;
41865;SDS011;27539;43.222;27.558;2022-10-12T10:50:07;0.40;;;0.38;;
41865;SDS011;27539;43.222;27.558;2022-10-12T10:52:56;0.10;;;0.10;;
41865;SDS011;27539;43.222;27.558;2022-10-12T10:58:08;0.15;;;0.15;;
41865;SDS011;27539;43.222;27.558;2022-10-12T11:00:43;0.70;;;0.70;;
41865;SDS011;27539;43.222;27.558;2022-10-12T11:03:13;0.68;;;0.50;;
41865;SDS011;27539;43.222;27.558;2022-10-12T11:05:48;0.10;;;0.10;;
41865;SDS011;27539;43.222;27.558;2022-10-12T11:11:30;0.20;;;0.20;;
41865;SDS011;27539;43.222;27.558;2022-10-12T11:18:55;0.75;;;0.22;;
41865;SDS011;27539;43.222;27.558;2022-10-12T11:21:31;0.85;;;0.47;;
41865;SDS011;27539;43.222;27.558;2022-10-12T11:24:10;8.45;;;0.93;;
41865;SDS011;27539;43.222;27.558;2022-10-12T11:29:12;1.98;;;0.57;;
41865;SDS011;27539;43.222;27.558;2022-10-12T11:31:42;0.30;;;0.30;;
41865;SDS011;27539;43.222;27.558;2022-10-12T11:34:17;0.30;;;0.20;;
41865;SDS011;27539;43.222;27.558;2022-10-12T11:36:45;0.45;;;0.43;;
41865;SDS011;27539;43.222;27.558;2022-10-12T11:39:14;0.55;;;0.55;;
41865;SDS011;27539;43.222;27.558;2022-10-12T11:41:45;0.52;;;0.52;;
41865;SDS011;27539;43.222;27.558;2022-10-12T11:44:36;0.10;;;0.10;;
41865;SDS011;27539;43.222;27.558;2022-10-12T11:47:29;0.98;;;0.70;;
41865;SDS011;27539;43.222;27.558;2022-10-12T11:50:06;0.52;;;0.30;;
41865;SDS011;27539;43.222;27.558;2022-10-12T11:52:56;3.47;;;1.00;;
41865;SDS011;27539;43.222;27.558;2022-10-12T11:55:28;3.55;;;1.25;;
41865;SDS011;27539;43.222;27.558;2022-10-12T11:58:18;0.93;;;0.93;;
41865;SDS011;27539;43.222;27.558;2022-10-12T12:01:02;0.45;;;0.45;;
41865;SDS011;27539;43.222;27.558;2022-10-12T12:11:28;3.42;;;0.68;;
41865;SDS011;27539;43.222;27.558;2022-10-12T12:16:45;0.10;;;0.10;;
41865;SDS011;27539;43.222;27.558;2022-10-12T12:27:34;0.25;;;0.20;;
41865;SDS011;27539;43.222;27.558;2022-10-12T12:30:38;0.10;;;0.10;;
41865;SDS011;27539;43.222;27.558;2022-10-12T12:33:15;0.70;;;0.40;;
41865;SDS011;27539;43.222;27.558;2022-10-12T12:38:30;0.22;;;0.22;;
41865;SDS011;27539;43.222;27.558;2022-10-12T12:45:57;1.40;;;0.53;;
41865;SDS011;27539;43.222;27.558;2022-10-12T12:54:17;0.10;;;0.10;;
41865;SDS011;27539;43.222;27.558;2022-10-12T12:59:20;0.47;;;0.47;;
41865;SDS011;27539;43.222;27.558;2022-10-12T13:05:09;0.70;;;0.57;;
41865;SDS011;27539;43.222;27.558;2022-10-12T13:08:00;0.15;;;0.15;;
41865;SDS011;27539;43.222;27.558;2022-10-12T13:18:59;0.30;;;0.30;;
41865;SDS011;27539;43.222;27.558;2022-10-12T13:21:28;0.38;;;0.38;;
41865;SDS011;27539;43.222;27.558;2022-10-12T13:24:05;0.10;;;0.10;;
41865;SDS011;27539;43.222;27.558;2022-10-12T13:26:38;0.05;;;0.05;;
41865;SDS011;27539;43.222;27.558;2022-10-12T13:29:11;0.00;;;0.00;;
41865;SDS011;27539;43.222;27.558;2022-10-12T13:31:43;0.33;;;0.33;;
41865;SDS011;27539;43.222;27.558;2022-10-12T13:34:14;0.20;;;0.20;;
41865;SDS011;27539;43.222;27.558;2022-10-12T13:37:00;0.50;;;0.50;;
41865;SDS011;27539;43.222;27.558;2022-10-12T13:39:27;0.08;;;0.08;;
41865;SDS011;27539;43.222;27.558;2022-10-12T13:41:54;0.17;;;0.17;;
41865;SDS011;27539;43.222;27.558;2022-10-12T13:44:27;0.68;;;0.30;;
41865;SDS011;27539;43.222;27.558;2022-10-12T13:46:55;0.63;;;0.35;;
41865;SDS011;27539;43.222;27.558;2022-10-12T13:49:27;0.93;;;0.17;;
41865;SDS011;27539;43.222;27.558;2022-10-12T13:54:36;0.10;;;0.10;;
41865;SDS011;27539;43.222;27.558;2022-10-12T14:00:18;0.17;;;0.17;;
41865;SDS011;27539;43.222;27.558;2022-10-12T14:03:02;0.30;;;0.30;;
41865;SDS011;27539;43.222;27.558;2022-10-12T14:05:32;0.70;;;0.70;;
41865;SDS011;27539;43.222;27.558;2022-10-12T14:08:09;0.65;;;0.65;;
41865;SDS011;27539;43.222;27.558;2022-10-12T14:10:39;0.50;;;0.50;;
41865;SDS011;27539;43.222;27.558;2022-10-12T14:13:06;0.85;;;0.40;;
41865;SDS011;27539;43.222;27.558;2022-10-12T14:15:37;0.20;;;0.20;;
41865;SDS011;27539;43.222;27.558;2022-10-12T14:18:28;0.47;;;0.47;;
41865;SDS011;27539;43.222;27.558;2022-10-12T14:21:03;1.30;;;0.93;;
41865;SDS011;27539;43.222;27.558;2022-10-12T14:23:34;1.67;;;0.35;;
41865;SDS011;27539;43.222;27.558;2022-10-12T14:26:13;0.03;;;0.03;;
41865;SDS011;27539;43.222;27.558;2022-10-12T14:39:37;0.15;;;0.15;;
41865;SDS011;27539;43.222;27.558;2022-10-12T14:44:52;0.20;;;0.20;;
41865;SDS011;27539;43.222;27.558;2022-10-12T14:47:28;0.55;;;0.43;;
41865;SDS011;27539;43.222;27.558;2022-10-12T14:52:26;1.13;;;0.90;;
41865;SDS011;27539;43.222;27.558;2022-10-12T14:54:56;0.38;;;0.38;;
41865;SDS011;27539;43.222;27.558;2022-10-12T14:57:23;0.68;;;0.68;;
41865;SDS011;27539;43.222;27.558;2022-10-12T14:59:51;1.08;;;0.57;;
41865;SDS011;27539;43.222;27.558;2022-10-12T15:04:47;1.65;;;0.52;;
41865;SDS011;27539;43.222;27.558;2022-10-12T15:07:17;0.30;;;0.20;;
41865;SDS011;27539;43.222;27.558;2022-10-12T15:09:53;0.13;;;0.13;;
41865;SDS011;27539;43.222;27.558;2022-10-12T15:12:19;0.43;;;0.28;;
41865;SDS011;27539;43.222;27.558;2022-10-12T15:14:46;0.20;;;0.20;;
41865;SDS011;27539;43.222;27.558;2022-10-12T15:17:14;4.38;;;0.95;;
41865;SDS011;27539;43.222;27.558;2022-10-12T15:19:42;6.03;;;0.82;;
41865;SDS011;27539;43.222;27.558;2022-10-12T15:24:38;0.47;;;0.35;;
41865;SDS011;27539;43.222;27.558;2022-10-12T15:27:04;0.40;;;0.40;;
41865;SDS011;27539;43.222;27.558;2022-10-12T15:29:29;0.10;;;0.10;;
41865;SDS011;27539;43.222;27.558;2022-10-12T15:31:55;0.20;;;0.20;;
41865;SDS011;27539;43.222;27.558;2022-10-12T15:34:22;0.20;;;0.20;;
41865;SDS011;27539;43.222;27.558;2022-10-12T15:36:47;0.52;;;0.43;;
41865;SDS011;27539;43.222;27.558;2022-10-12T15:39:13;0.93;;;0.93;;
41865;SDS011;27539;43.222;27.558;2022-10-12T15:41:39;0.25;;;0.25;;
41865;SDS011;27539;43.222;27.558;2022-10-12T15:44:05;0.20;;;0.20;;
41865;SDS011;27539;43.222;27.558;2022-10-12T15:46:30;0.30;;;0.30;;
41865;SDS011;27539;43.222;27.558;2022-10-12T15:48:56;0.50;;;0.50;;
41865;SDS011;27539;43.222;27.558;2022-10-12T15:51:22;0.35;;;0.35;;
41865;SDS011;27539;43.222;27.558;2022-10-12T15:56:15;0.95;;;0.65;;
41865;SDS011;27539;43.222;27.558;2022-10-12T15:58:41;0.63;;;0.63;;
41865;SDS011;27539;43.222;27.558;2022-10-12T16:01:11;1.23;;;1.20;;
41865;SDS011;27539;43.222;27.558;2022-10-12T16:03:37;2.58;;;1.30;;
41865;SDS011;27539;43.222;27.558;2022-10-12T16:06:02;1.08;;;0.50;;
41865;SDS011;27539;43.222;27.558;2022-10-12T16:08:28;0.90;;;0.90;;
41865;SDS011;27539;43.222;27.558;2022-10-12T16:10:53;1.27;;;1.17;;
41865;SDS011;27539;43.222;27.558;2022-10-12T16:13:19;0.05;;;0.05;;
41865;SDS011;27539;43.222;27.558;2022-10-12T16:15:44;24.77;;;1.48;;
41865;SDS011;27539;43.222;27.558;2022-10-12T16:18:10;0.20;;;0.20;;
41865;SDS011;27539;43.222;27.558;2022-10-12T16:20:39;2.30;;;0.40;;
41865;SDS011;27539;43.222;27.558;2022-10-12T16:23:07;0.10;;;0.10;;
41865;SDS011;27539;43.222;27.558;2022-10-12T16:25:37;0.93;;;0.35;;
41865;SDS011;27539;43.222;27.558;2022-10-12T16:28:02;0.17;;;0.17;;
41865;SDS011;27539;43.222;27.558;2022-10-12T16:30:28;0.10;;;0.10;;
41865;SDS011;27539;43.222;27.558;2022-10-12T16:32:54;0.10;;;0.10;;
41865;SDS011;27539;43.222;27.558;2022-10-12T16:35:20;0.10;;;0.10;;
41865;SDS011;27539;43.222;27.558;2022-10-12T16:37:45;0.20;;;0.20;;
41865;SDS011;27539;43.222;27.558;2022-10-12T16:40:11;0.10;;;0.10;;
41865;SDS011;27539;43.222;27.558;2022-10-12T16:42:36;0.20;;;0.20;;
41865;SDS011;27539;43.222;27.558;2022-10-12T16:45:02;0.22;;;0.20;;
41865;SDS011;27539;43.222;27.558;2022-10-12T16:47:28;0.88;;;0.52;;
41865;SDS011;27539;43.222;27.558;2022-10-12T16:49:54;0.17;;;0.17;;
41865;SDS011;27539;43.222;27.558;2022-10-12T16:52:20;0.65;;;0.65;;
41865;SDS011;27539;43.222;27.558;2022-10-12T16:54:52;0.20;;;0.20;;
41865;SDS011;27539;43.222;27.558;2022-10-12T16:57:18;0.57;;;0.30;;
41865;SDS011;27539;43.222;27.558;2022-10-12T16:59:44;0.40;;;0.40;;
41865;SDS011;27539;43.222;27.558;2022-10-12T17:02:10;1.95;;;1.05;;
41865;SDS011;27539;43.222;27.558;2022-10-12T17:04:36;0.25;;;0.25;;
41865;SDS011;27539;43.222;27.558;2022-10-12T17:07:02;0.77;;;0.45;;
41865;SDS011;27539;43.222;27.558;2022-10-12T17:09:28;2.03;;;1.45;;